createdAt,value
2023-04-15T00:00:53.907Z,47.46
2023-04-15T00:02:00.115Z,47.37
2023-04-15T00:03:03.992Z,47.22
2023-04-15T00:04:07.817Z,47.07
2023-04-15T00:05:11.706Z,46.90
2023-04-15T00:06:15.441Z,47.07
2023-04-15T00:07:19.082Z,47.41
2023-04-15T00:08:22.743Z,47.34
2023-04-15T00:09:26.508Z,47.78
2023-04-15T00:10:30.224Z,47.30
2023-04-15T00:11:34.075Z,47.29
2023-04-15T00:12:37.846Z,47.47
2023-04-15T00:13:43.531Z,47.87
2023-04-15T00:14:47.238Z,48.18
2023-04-15T00:15:50.891Z,47.50
2023-04-15T00:16:54.664Z,47.97
2023-04-15T00:18:02.937Z,47.42
2023-04-15T00:19:06.583Z,47.44
2023-04-15T00:20:11.089Z,47.59
2023-04-15T00:21:14.729Z,47.25
2023-04-15T00:22:18.521Z,47.26
2023-04-15T00:23:22.324Z,48.27
2023-04-15T00:24:26.078Z,47.76
2023-04-15T00:25:32.060Z,47.59
2023-04-15T00:26:35.700Z,47.73
2023-04-15T00:27:39.769Z,47.89
2023-04-15T00:28:45.111Z,47.78
2023-04-15T00:29:48.726Z,47.55
2023-04-15T00:30:52.452Z,47.27
2023-04-15T00:31:56.170Z,48.00
2023-04-15T00:33:25.706Z,47.89
2023-04-15T00:34:29.448Z,47.36
2023-04-15T00:35:33.419Z,48.12
2023-04-15T00:36:37.060Z,47.76
2023-04-15T00:37:40.662Z,47.73
2023-04-15T00:38:44.314Z,48.13
2023-04-15T00:39:48.037Z,47.79
2023-04-15T00:40:51.832Z,48.13
2023-04-15T00:41:55.849Z,47.98
2023-04-15T00:42:59.565Z,47.77
2023-04-15T00:44:04.907Z,47.61
2023-04-15T00:45:09.753Z,47.64
2023-04-15T00:46:15.184Z,48.48
2023-04-15T00:47:19.873Z,48.14
2023-04-15T00:48:23.817Z,47.96
2023-04-15T00:49:28.616Z,48.50
2023-04-15T00:50:32.383Z,48.49
2023-04-15T00:51:36.351Z,48.51
2023-04-15T00:52:40.351Z,48.78
2023-04-15T00:53:44.096Z,48.04
2023-04-15T00:54:47.804Z,48.02
2023-04-15T00:55:51.634Z,47.88
2023-04-15T00:56:55.361Z,47.94
2023-04-15T00:57:59.050Z,48.34
2023-04-15T00:59:04.938Z,47.93
2023-04-15T01:00:09.520Z,48.10
2023-04-15T01:01:13.341Z,47.69
2023-04-15T01:02:17.198Z,47.78
2023-04-15T01:03:21.210Z,47.41
2023-04-15T01:04:26.001Z,47.05
2023-04-15T01:05:30.677Z,47.24
2023-04-15T01:06:34.393Z,47.20
2023-04-15T01:07:38.056Z,47.29
2023-04-15T01:08:41.765Z,47.07
2023-04-15T01:09:45.535Z,47.67
2023-04-15T01:10:49.411Z,47.46
2023-04-15T01:11:53.414Z,47.37
2023-04-15T01:12:57.444Z,47.32
2023-04-15T01:14:01.136Z,46.82
2023-04-15T01:15:07.316Z,47.20
2023-04-15T01:16:12.054Z,47.28
2023-04-15T01:17:15.844Z,47.24
2023-04-15T01:18:19.978Z,46.79
2023-04-15T01:19:23.647Z,47.43
2023-04-15T01:20:27.589Z,46.30
2023-04-15T01:21:31.318Z,46.71
2023-04-15T01:22:35.659Z,47.00
2023-04-15T01:23:39.951Z,46.75
2023-04-15T01:24:51.645Z,46.46
2023-04-15T01:25:58.318Z,47.61
2023-04-15T01:27:02.229Z,46.86
2023-04-15T01:28:06.146Z,46.82
2023-04-15T01:29:09.859Z,46.75
2023-04-15T01:30:13.548Z,46.45
2023-04-15T01:31:17.500Z,46.72
2023-04-15T01:32:21.219Z,46.82
2023-04-15T01:33:24.941Z,47.24
2023-04-15T01:34:28.649Z,46.91
2023-04-15T01:35:32.372Z,46.69
2023-04-15T01:36:36.132Z,46.59
2023-04-15T01:37:39.867Z,46.85
2023-04-15T01:38:43.573Z,46.91
2023-04-15T01:39:47.252Z,46.45
2023-04-15T01:40:50.947Z,46.41
2023-04-15T01:41:56.291Z,46.68
2023-04-15T01:43:00.006Z,46.82
2023-04-15T01:44:03.628Z,47.23
2023-04-15T01:45:08.267Z,47.57
2023-04-15T01:46:11.965Z,47.11
2023-04-15T01:47:15.772Z,46.96
2023-04-15T01:48:19.509Z,46.89
2023-04-15T01:49:23.196Z,46.91
2023-04-15T01:50:26.857Z,46.70
2023-04-15T01:51:30.565Z,47.11
2023-04-15T01:52:34.254Z,46.44
2023-04-15T01:53:37.946Z,46.45
2023-04-15T01:54:41.611Z,46.22
2023-04-15T01:55:45.281Z,46.28
2023-04-15T01:56:49.086Z,45.72
2023-04-15T01:57:54.521Z,45.77
2023-04-15T01:58:58.371Z,45.96
2023-04-15T02:00:02.342Z,45.55
2023-04-15T02:01:06.125Z,45.68
2023-04-15T02:02:09.879Z,45.25
2023-04-15T02:03:13.625Z,45.81
2023-04-15T02:04:17.443Z,45.99
2023-04-15T02:05:21.160Z,46.34
2023-04-15T02:06:24.825Z,46.02
2023-04-15T02:07:28.909Z,46.13
2023-04-15T02:08:32.641Z,45.67
2023-04-15T02:09:36.288Z,45.15
2023-04-15T02:10:40.021Z,45.13
2023-04-15T02:11:43.658Z,44.36
2023-04-15T02:12:47.370Z,44.71
2023-04-15T02:13:52.701Z,44.94
2023-04-15T02:14:56.287Z,45.31
2023-04-15T02:16:00.006Z,44.86
2023-04-15T02:17:03.697Z,44.58
2023-04-15T02:18:07.399Z,44.11
2023-04-15T02:19:11.094Z,45.07
2023-04-15T02:20:14.751Z,44.73
2023-04-15T02:21:18.479Z,44.80
2023-04-15T02:22:22.128Z,44.93
2023-04-15T02:23:26.100Z,44.40
2023-04-15T02:24:30.430Z,43.84
2023-04-15T02:25:34.071Z,43.89
2023-04-15T02:26:37.838Z,44.61
2023-04-15T02:27:41.560Z,44.22
2023-04-15T02:28:45.231Z,44.00
2023-04-15T02:29:50.508Z,44.64
2023-04-15T02:30:54.189Z,43.76
2023-04-15T02:31:57.810Z,44.63
2023-04-15T02:33:02.604Z,43.63
2023-04-15T02:34:06.265Z,43.56
2023-04-15T02:35:10.277Z,43.58
2023-04-15T02:36:13.975Z,43.32
2023-04-15T02:37:17.630Z,44.52
2023-04-15T02:38:31.280Z,44.65
2023-04-15T02:39:34.960Z,44.46
2023-04-15T02:40:38.918Z,44.32
2023-04-15T02:41:42.591Z,44.56
2023-04-15T02:42:46.496Z,44.77
2023-04-15T02:43:50.163Z,44.90
2023-04-15T02:44:55.440Z,43.92
2023-04-15T02:45:59.334Z,44.82
2023-04-15T02:47:03.010Z,44.83
2023-04-15T02:48:07.096Z,44.13
2023-04-15T02:49:10.847Z,44.46
2023-04-15T02:50:15.516Z,43.67
2023-04-15T02:51:20.436Z,44.08
2023-04-15T02:52:24.161Z,44.05
2023-04-15T02:53:27.856Z,44.09
2023-04-15T02:54:31.512Z,43.45
2023-04-15T02:55:35.216Z,43.65
2023-04-15T02:56:38.854Z,43.12
2023-04-15T02:57:42.508Z,42.79
2023-04-15T02:58:46.556Z,43.20
2023-04-15T02:59:50.313Z,43.40
2023-04-15T03:00:55.643Z,43.31
2023-04-15T03:01:59.399Z,43.12
2023-04-15T03:03:05.034Z,42.33
2023-04-15T03:04:09.201Z,42.72
2023-04-15T03:05:14.688Z,42.65
2023-04-15T03:06:18.448Z,43.01
2023-04-15T03:07:22.069Z,42.96
2023-04-15T03:08:25.772Z,42.43
2023-04-15T03:09:38.039Z,42.32
2023-04-15T03:10:41.716Z,41.91
2023-04-15T03:11:45.398Z,41.82
2023-04-15T03:12:49.302Z,41.71
2023-04-15T03:13:52.937Z,41.64
2023-04-15T03:14:56.795Z,42.35
2023-04-15T03:16:02.344Z,40.97
2023-04-15T03:17:06.267Z,41.77
2023-04-15T03:18:09.976Z,41.54
2023-04-15T03:19:13.655Z,41.19
2023-04-15T03:20:17.359Z,42.03
2023-04-15T03:21:21.040Z,42.41
2023-04-15T03:22:24.788Z,42.11
2023-04-15T03:23:28.563Z,42.29
2023-04-15T03:24:34.403Z,41.86
2023-04-15T03:25:38.065Z,41.73
2023-04-15T03:26:41.713Z,42.91
2023-04-15T03:27:45.392Z,42.26
2023-04-15T03:28:49.041Z,42.60
2023-04-15T03:29:52.632Z,42.55
2023-04-15T03:30:56.486Z,41.83
2023-04-15T03:32:01.894Z,42.24
2023-04-15T03:33:05.660Z,42.49
2023-04-15T03:34:17.090Z,42.40
2023-04-15T03:35:20.752Z,42.37
2023-04-15T03:36:24.445Z,42.49
2023-04-15T03:37:28.136Z,42.62
2023-04-15T03:38:31.810Z,42.86
2023-04-15T03:39:35.476Z,42.34
2023-04-15T03:40:41.536Z,42.81
2023-04-15T03:41:45.225Z,42.41
2023-04-15T03:42:48.923Z,42.47
2023-04-15T03:43:52.628Z,42.72
2023-04-15T03:44:56.250Z,42.41
2023-04-15T03:46:01.733Z,43.08
2023-04-15T03:47:07.241Z,42.97
2023-04-15T03:48:16.662Z,42.68
2023-04-15T03:49:21.224Z,42.83
2023-04-15T03:50:25.056Z,43.87
2023-04-15T03:51:28.754Z,42.78
2023-04-15T03:52:32.520Z,42.61
2023-04-15T03:53:36.258Z,43.57
2023-04-15T03:54:39.986Z,42.42
2023-04-15T03:55:43.635Z,42.34
2023-04-15T03:56:47.325Z,42.15
2023-04-15T03:57:51.191Z,41.90
2023-04-15T03:58:54.837Z,41.93
2023-04-15T03:59:58.454Z,42.63
2023-04-15T04:01:02.059Z,42.25
2023-04-15T04:02:07.657Z,41.77
2023-04-15T04:03:11.535Z,42.30
2023-04-15T04:04:15.493Z,42.58
2023-04-15T04:05:19.310Z,42.14
2023-04-15T04:06:23.179Z,41.86
2023-04-15T04:07:27.129Z,42.45
2023-04-15T04:08:30.767Z,41.93
2023-04-15T04:09:34.406Z,42.39
2023-04-15T04:10:38.153Z,41.91
2023-04-15T04:11:41.773Z,42.03
2023-04-15T04:12:45.469Z,42.51
2023-04-15T04:13:49.158Z,42.03
2023-04-15T04:14:52.814Z,41.97
2023-04-15T04:15:56.503Z,41.88
2023-04-15T04:17:00.210Z,42.10
2023-04-15T04:18:05.630Z,41.64
2023-04-15T04:19:09.287Z,42.01
2023-04-15T04:20:13.289Z,41.50
2023-04-15T04:21:17.071Z,42.26
2023-04-15T04:22:24.127Z,41.67
2023-04-15T04:23:28.098Z,42.00
2023-04-15T04:24:31.883Z,41.27
2023-04-15T04:25:35.513Z,41.08
2023-04-15T04:26:39.268Z,41.04
2023-04-15T04:27:43.011Z,41.18
2023-04-15T04:28:46.811Z,41.82
2023-04-15T04:29:50.382Z,41.28
2023-04-15T04:30:54.068Z,41.57
2023-04-15T04:31:57.702Z,41.32
2023-04-15T04:33:01.472Z,40.58
2023-04-15T04:34:06.924Z,42.33
2023-04-15T04:35:11.523Z,40.79
2023-04-15T04:36:18.181Z,40.75
2023-04-15T04:37:21.807Z,40.87
2023-04-15T04:38:25.607Z,40.67
2023-04-15T04:39:29.256Z,40.30
2023-04-15T04:40:32.909Z,40.83
2023-04-15T04:41:36.599Z,40.41
2023-04-15T04:42:40.373Z,41.00
2023-04-15T04:43:44.018Z,40.20
2023-04-15T04:44:48.182Z,40.16
2023-04-15T04:45:52.326Z,40.83
2023-04-15T04:46:56.124Z,41.58
2023-04-15T04:47:59.793Z,40.66
2023-04-15T04:49:03.638Z,40.87
2023-04-15T04:50:10.271Z,40.12
2023-04-15T04:51:14.089Z,40.49
2023-04-15T04:52:18.142Z,40.95
2023-04-15T04:53:21.912Z,40.80
2023-04-15T04:54:25.685Z,40.49
2023-04-15T04:55:29.368Z,40.37
2023-04-15T04:56:33.069Z,40.12
2023-04-15T04:57:36.673Z,40.32
2023-04-15T04:58:40.325Z,40.37
2023-04-15T04:59:44.009Z,39.73
2023-04-15T05:00:47.738Z,39.75
2023-04-15T05:01:51.647Z,39.72
2023-04-15T05:02:55.477Z,40.22
2023-04-15T05:03:59.411Z,40.03
2023-04-15T05:05:03.181Z,39.51
2023-04-15T05:06:08.466Z,39.93
2023-04-15T05:07:12.155Z,39.75
2023-04-15T05:08:15.888Z,39.68
2023-04-15T05:09:19.606Z,39.87
2023-04-15T05:10:23.293Z,39.90
2023-04-15T05:11:26.953Z,40.67
2023-04-15T05:12:30.808Z,40.38
2023-04-15T05:13:34.532Z,39.97
2023-04-15T05:14:38.228Z,40.74
2023-04-15T05:15:41.985Z,40.57
2023-04-15T05:16:45.727Z,39.91
2023-04-15T05:17:49.509Z,39.79
2023-04-15T05:18:53.311Z,40.40
2023-04-15T05:19:56.993Z,40.05
2023-04-15T05:21:00.897Z,40.22
2023-04-15T05:22:06.215Z,40.20
2023-04-15T05:23:09.916Z,39.23
2023-04-15T05:24:13.621Z,39.30
2023-04-15T05:25:17.454Z,39.06
2023-04-15T05:26:21.186Z,39.03
2023-04-15T05:27:24.807Z,39.38
2023-04-15T05:28:28.498Z,39.05
2023-04-15T05:29:32.354Z,38.75
2023-04-15T05:30:36.083Z,38.19
2023-04-15T05:31:39.888Z,37.95
2023-04-15T05:32:43.759Z,38.48
2023-04-15T05:33:47.471Z,37.94
2023-04-15T05:34:51.101Z,38.09
2023-04-15T05:35:54.723Z,37.99
2023-04-15T05:36:58.345Z,37.49
2023-04-15T05:38:03.868Z,38.41
2023-04-15T05:39:07.587Z,38.36
2023-04-15T05:40:11.682Z,37.81
2023-04-15T05:41:16.569Z,38.22
2023-04-15T05:42:22.154Z,38.08
2023-04-15T05:43:26.043Z,37.74
2023-04-15T05:44:29.617Z,38.14
2023-04-15T05:45:33.374Z,38.39
2023-04-15T05:46:39.880Z,37.95
2023-04-15T05:47:43.656Z,38.30
2023-04-15T05:48:47.464Z,38.15
2023-04-15T05:50:00.058Z,37.86
2023-04-15T05:51:03.737Z,38.07
2023-04-15T05:52:09.517Z,38.16
2023-04-15T05:53:14.936Z,38.22
2023-04-15T05:54:19.991Z,38.45
2023-04-15T05:55:24.065Z,38.17
2023-04-15T05:56:27.792Z,37.62
2023-04-15T05:57:31.541Z,37.83
2023-04-15T05:58:35.543Z,37.45
2023-04-15T05:59:39.329Z,37.70
2023-04-15T06:00:43.089Z,37.69
2023-04-15T06:01:46.871Z,37.94
2023-04-15T06:02:50.787Z,37.62
2023-04-15T06:03:56.457Z,37.22
2023-04-15T06:05:00.373Z,37.02
2023-04-15T06:06:04.216Z,37.41
2023-04-15T06:07:07.956Z,36.75
2023-04-15T06:08:13.276Z,37.43
2023-04-15T06:09:16.950Z,37.16
2023-04-15T06:10:20.706Z,37.04
2023-04-15T06:11:24.452Z,37.12
2023-04-15T06:12:28.121Z,37.21
2023-04-15T06:13:31.772Z,36.75
2023-04-15T06:14:35.512Z,36.57
2023-04-15T06:15:39.155Z,36.32
2023-04-15T06:16:42.805Z,36.23
2023-04-15T06:17:46.565Z,36.71
2023-04-15T06:18:50.345Z,35.83
2023-04-15T06:19:54.104Z,36.42
2023-04-15T06:20:58.000Z,36.51
2023-04-15T06:22:01.851Z,36.57
2023-04-15T06:23:05.572Z,36.31
2023-04-15T06:24:11.092Z,36.44
2023-04-15T06:25:14.787Z,36.40
2023-04-15T06:26:18.489Z,36.48
2023-04-15T06:27:22.186Z,36.15
2023-04-15T06:28:25.877Z,36.73
2023-04-15T06:29:29.639Z,36.67
2023-04-15T06:30:33.362Z,36.29
2023-04-15T06:31:37.155Z,36.15
2023-04-15T06:32:41.055Z,36.79
2023-04-15T06:33:44.758Z,36.54
2023-04-15T06:34:48.543Z,36.25
2023-04-15T06:35:52.165Z,36.50
2023-04-15T06:36:55.858Z,35.59
2023-04-15T06:37:59.587Z,35.57
2023-04-15T06:39:03.528Z,35.27
2023-04-15T06:40:10.701Z,35.66
2023-04-15T06:41:14.459Z,34.52
2023-04-15T06:42:18.206Z,35.10
2023-04-15T06:43:21.999Z,35.44
2023-04-15T06:44:25.718Z,35.08
2023-04-15T06:45:29.394Z,34.55
2023-04-15T06:46:33.104Z,34.62
2023-04-15T06:47:36.842Z,34.74
2023-04-15T06:48:40.604Z,34.07
2023-04-15T06:49:44.290Z,34.12
2023-04-15T06:50:48.008Z,34.16
2023-04-15T06:51:51.660Z,34.18
2023-04-15T06:52:56.497Z,33.96
2023-04-15T06:54:00.377Z,34.39
2023-04-15T06:55:24.069Z,34.58
2023-04-15T06:56:27.811Z,34.46
2023-04-15T06:57:32.761Z,34.34
2023-04-15T06:58:52.657Z,34.58
2023-04-15T06:59:56.461Z,34.89
2023-04-15T07:01:00.411Z,34.42
2023-04-15T07:02:04.238Z,34.24
2023-04-15T07:03:07.976Z,34.33
2023-04-15T07:04:11.942Z,34.11
2023-04-15T07:05:15.940Z,33.74
2023-04-15T07:06:19.725Z,33.75
2023-04-15T07:07:23.479Z,33.45
2023-04-15T07:08:27.117Z,33.22
2023-04-15T07:09:30.786Z,33.72
2023-04-15T07:10:36.144Z,34.36
2023-04-15T07:11:39.830Z,33.89
2023-04-15T07:12:43.554Z,33.94
2023-04-15T07:13:47.319Z,33.60
2023-04-15T07:14:51.007Z,32.99
2023-04-15T07:15:54.699Z,33.42
2023-04-15T07:16:58.680Z,33.63
2023-04-15T07:18:02.400Z,32.95
2023-04-15T07:19:06.191Z,32.88
2023-04-15T07:20:10.870Z,32.82
2023-04-15T07:21:14.601Z,32.84
2023-04-15T07:22:18.308Z,33.18
2023-04-15T07:23:21.952Z,33.47
2023-04-15T07:24:25.634Z,33.47
2023-04-15T07:25:29.380Z,32.72
2023-04-15T07:26:34.709Z,32.34
2023-04-15T07:27:38.523Z,33.22
2023-04-15T07:28:42.153Z,32.95
2023-04-15T07:29:45.831Z,33.20
2023-04-15T07:30:50.248Z,31.68
2023-04-15T07:31:53.991Z,31.35
2023-04-15T07:32:57.703Z,31.55
2023-04-15T07:34:01.400Z,32.22
2023-04-15T07:35:05.430Z,31.62
2023-04-15T07:36:09.153Z,32.20
2023-04-15T07:37:12.870Z,31.46
2023-04-15T07:38:16.609Z,31.80
2023-04-15T07:39:20.359Z,31.47
2023-04-15T07:40:24.029Z,31.90
2023-04-15T07:41:27.768Z,32.13
2023-04-15T07:42:33.175Z,31.80
2023-04-15T07:43:36.837Z,31.55
2023-04-15T07:44:40.484Z,32.00
2023-04-15T07:45:44.279Z,31.51
2023-04-15T07:46:48.611Z,31.35
2023-04-15T07:47:52.488Z,31.26
2023-04-15T07:48:56.376Z,31.58
2023-04-15T07:50:00.143Z,31.32
2023-04-15T07:51:03.838Z,31.37
2023-04-15T07:52:07.638Z,30.81
2023-04-15T07:53:11.320Z,30.97
2023-04-15T07:54:14.966Z,30.25
2023-04-15T07:55:18.641Z,31.28
2023-04-15T07:56:22.323Z,31.02
2023-04-15T07:57:26.101Z,30.29
2023-04-15T07:58:31.396Z,30.55
2023-04-15T07:59:35.018Z,30.63
2023-04-15T08:00:38.937Z,30.43
2023-04-15T08:01:43.122Z,30.50
2023-04-15T08:02:47.173Z,30.95
2023-04-15T08:03:51.108Z,30.96
2023-04-15T08:04:54.983Z,30.61
2023-04-15T08:05:58.678Z,30.59
2023-04-15T08:07:02.331Z,30.46
2023-04-15T08:08:06.027Z,30.19
2023-04-15T08:09:09.632Z,30.32
2023-04-15T08:10:13.346Z,30.08
2023-04-15T08:11:17.005Z,30.47
2023-04-15T08:12:20.766Z,30.50
2023-04-15T08:13:24.528Z,30.06
2023-04-15T08:14:29.802Z,30.29
2023-04-15T08:15:33.441Z,30.76
2023-04-15T08:16:37.253Z,30.22
2023-04-15T08:17:41.045Z,29.44
2023-04-15T08:18:44.816Z,30.09
2023-04-15T08:19:48.479Z,29.93
2023-04-15T08:20:52.231Z,30.13
2023-04-15T08:21:55.975Z,29.81
2023-04-15T08:22:59.631Z,30.21
2023-04-15T08:24:03.391Z,29.83
2023-04-15T08:25:07.538Z,29.85
2023-04-15T08:26:11.304Z,29.84
2023-04-15T08:27:15.032Z,30.11
2023-04-15T08:28:18.715Z,30.29
2023-04-15T08:29:22.449Z,30.16
2023-04-15T08:30:27.828Z,30.05
2023-04-15T08:31:31.655Z,28.73
2023-04-15T08:32:35.434Z,29.71
2023-04-15T08:33:39.158Z,28.83
2023-04-15T08:34:42.831Z,29.45
2023-04-15T08:35:46.519Z,29.80
2023-04-15T08:36:50.311Z,29.69
2023-04-15T08:37:54.030Z,29.30
2023-04-15T08:38:57.658Z,29.63
2023-04-15T08:40:01.298Z,29.50
2023-04-15T08:41:08.530Z,29.06
2023-04-15T08:42:17.243Z,29.30
2023-04-15T08:43:24.731Z,29.22
2023-04-15T08:44:30.467Z,29.71
2023-04-15T08:45:36.090Z,29.48
2023-04-15T08:46:40.533Z,29.43
2023-04-15T08:47:46.544Z,29.71
2023-04-15T08:48:50.788Z,30.18
2023-04-15T08:49:58.545Z,29.78
2023-04-15T08:51:02.811Z,29.69
2023-04-15T08:52:08.184Z,29.57
2023-04-15T08:53:12.432Z,29.32
2023-04-15T08:54:16.562Z,29.74
2023-04-15T08:55:21.925Z,29.21
2023-04-15T08:56:27.034Z,29.35
2023-04-15T08:57:31.233Z,29.99
2023-04-15T08:58:36.391Z,29.41
2023-04-15T08:59:40.513Z,29.88
2023-04-15T09:00:45.962Z,28.96
2023-04-15T09:01:50.392Z,29.95
2023-04-15T09:02:54.191Z,29.54
2023-04-15T09:03:58.454Z,29.71
2023-04-15T09:05:02.226Z,29.44
2023-04-15T09:06:06.389Z,29.80
2023-04-15T09:07:10.331Z,29.45
2023-04-15T09:08:14.020Z,29.91
2023-04-15T09:09:17.742Z,29.78
2023-04-15T09:10:21.570Z,30.05
2023-04-15T09:11:25.262Z,29.92
2023-04-15T09:12:29.070Z,29.83
2023-04-15T09:13:32.812Z,29.22
2023-04-15T09:14:41.047Z,29.69
2023-04-15T09:15:46.438Z,29.56
2023-04-15T09:17:00.568Z,29.84
2023-04-15T09:18:04.382Z,29.56
2023-04-15T09:19:22.490Z,29.37
2023-04-15T09:20:26.220Z,30.11
2023-04-15T09:21:32.769Z,30.25
2023-04-15T09:22:36.802Z,30.19
2023-04-15T09:23:42.274Z,29.78
2023-04-15T09:24:46.011Z,29.60
2023-04-15T09:25:50.036Z,29.92
2023-04-15T09:26:55.101Z,29.61
2023-04-15T09:28:00.672Z,29.55
2023-04-15T09:29:08.038Z,29.49
2023-04-15T09:30:13.407Z,29.95
2023-04-15T09:31:20.146Z,29.74
2023-04-15T09:32:23.913Z,29.86
2023-04-15T09:33:28.203Z,30.21
2023-04-15T09:34:37.377Z,30.71
2023-04-15T09:35:41.235Z,31.26
2023-04-15T09:36:55.387Z,30.88
2023-04-15T09:38:05.453Z,30.75
2023-04-15T09:39:09.163Z,31.51
2023-04-15T09:40:14.055Z,31.29
2023-04-15T09:41:20.137Z,31.49
2023-04-15T09:42:23.769Z,30.92
2023-04-15T09:43:39.488Z,30.82
2023-04-15T09:44:43.204Z,30.99
2023-04-15T09:45:49.943Z,30.83
2023-04-15T09:46:55.350Z,30.73
2023-04-15T09:47:59.928Z,29.85
2023-04-15T09:49:09.546Z,30.03
2023-04-15T09:50:13.249Z,30.56
2023-04-15T09:51:16.856Z,30.69
2023-04-15T09:52:20.609Z,30.97
2023-04-15T09:53:25.496Z,30.41
2023-04-15T09:54:39.333Z,30.67
2023-04-15T09:55:45.782Z,30.26
2023-04-15T09:56:49.458Z,30.14
2023-04-15T09:57:53.121Z,30.93
2023-04-15T09:58:58.618Z,30.09
2023-04-15T10:00:02.310Z,30.29
2023-04-15T10:01:06.676Z,31.04
2023-04-15T10:02:14.494Z,30.95
2023-04-15T10:03:21.255Z,31.04
2023-04-15T10:04:31.366Z,30.24
2023-04-15T10:05:35.809Z,30.52
2023-04-15T10:06:40.524Z,30.63
2023-04-15T10:07:44.332Z,30.17
2023-04-15T10:08:49.104Z,30.15
2023-04-15T10:09:53.081Z,30.05
2023-04-15T10:10:57.003Z,30.92
2023-04-15T10:12:00.737Z,30.38
2023-04-15T10:13:04.571Z,30.72
2023-04-15T10:14:10.489Z,31.25
2023-04-15T10:15:17.347Z,31.06
2023-04-15T10:16:22.513Z,31.19
2023-04-15T10:17:31.200Z,31.34
2023-04-15T10:18:38.837Z,31.93
2023-04-15T10:19:43.175Z,31.17
2023-04-15T10:20:48.936Z,31.70
2023-04-15T10:21:53.047Z,32.07
2023-04-15T10:22:57.522Z,31.61
2023-04-15T10:24:09.437Z,31.42
2023-04-15T10:25:15.611Z,32.09
2023-04-15T10:26:19.639Z,31.96
2023-04-15T10:27:24.191Z,32.05
2023-04-15T10:28:28.865Z,32.00
2023-04-15T10:29:33.025Z,32.23
2023-04-15T10:30:37.271Z,31.92
2023-04-15T10:31:42.184Z,33.16
2023-04-15T10:32:47.842Z,32.19
2023-04-15T10:33:52.403Z,32.88
2023-04-15T10:34:56.602Z,32.45
2023-04-15T10:36:00.878Z,31.90
2023-04-15T10:37:04.994Z,32.60
2023-04-15T10:38:36.493Z,32.55
2023-04-15T10:39:44.250Z,32.41
2023-04-15T10:40:47.987Z,32.20
2023-04-15T10:42:07.974Z,32.38
2023-04-15T10:43:26.548Z,32.52
2023-04-15T10:44:36.524Z,32.33
2023-04-15T10:45:40.194Z,32.54
2023-04-15T10:46:45.216Z,32.36
2023-04-15T10:47:53.629Z,32.41
2023-04-15T10:48:57.454Z,32.11
2023-04-15T10:50:02.832Z,32.76
2023-04-15T10:51:06.870Z,32.42
2023-04-15T10:52:10.509Z,32.91
2023-04-15T10:53:27.640Z,32.13
2023-04-15T10:54:38.958Z,32.80
2023-04-15T10:55:42.631Z,31.94
2023-04-15T10:56:46.496Z,31.69
2023-04-15T10:57:54.070Z,31.98
2023-04-15T10:58:59.797Z,31.84
2023-04-15T11:00:14.730Z,31.90
2023-04-15T11:01:20.211Z,32.29
2023-04-15T11:02:39.161Z,31.82
2023-04-15T11:03:45.081Z,31.31
2023-04-15T11:04:56.866Z,32.36
2023-04-15T11:06:00.538Z,32.13
2023-04-15T11:07:07.862Z,33.00
2023-04-15T11:08:12.031Z,32.71
2023-04-15T11:09:33.653Z,32.91
2023-04-15T11:10:53.100Z,33.55
2023-04-15T11:12:09.934Z,33.28
2023-04-15T11:13:18.381Z,33.78
2023-04-15T11:14:22.243Z,34.30
2023-04-15T11:15:30.917Z,33.97
2023-04-15T11:16:43.902Z,33.87
2023-04-15T11:17:47.656Z,34.60
2023-04-15T11:18:59.141Z,34.10
2023-04-15T11:20:03.469Z,34.10
2023-04-15T11:21:08.804Z,34.52
2023-04-15T11:22:12.969Z,34.37
2023-04-15T11:23:17.098Z,33.97
2023-04-15T11:24:26.124Z,33.88
2023-04-15T11:25:31.003Z,34.25
2023-04-15T11:26:34.973Z,34.29
2023-04-15T11:27:38.631Z,33.92
2023-04-15T11:28:44.370Z,33.86
2023-04-15T11:29:48.169Z,34.41
2023-04-15T11:30:51.898Z,34.42
2023-04-15T11:32:02.704Z,34.01
2023-04-15T11:33:07.454Z,34.27
2023-04-15T11:34:12.785Z,34.16
2023-04-15T11:35:17.934Z,34.46
2023-04-15T11:36:21.724Z,34.46
2023-04-15T11:37:30.710Z,34.27
2023-04-15T11:38:35.755Z,34.67
2023-04-15T11:39:39.416Z,34.44
2023-04-15T11:40:46.792Z,34.74
2023-04-15T11:41:51.106Z,34.90
2023-04-15T11:43:06.722Z,34.36
2023-04-15T11:44:18.506Z,34.44
2023-04-15T11:45:22.194Z,34.63
2023-04-15T11:46:31.206Z,34.37
2023-04-15T11:47:34.940Z,34.79
2023-04-15T11:48:42.655Z,34.18
2023-04-15T11:49:47.895Z,34.43
2023-04-15T11:50:56.264Z,34.42
2023-04-15T11:52:00.002Z,34.71
2023-04-15T11:53:06.853Z,34.18
2023-04-15T11:54:20.470Z,34.56
2023-04-15T11:55:24.719Z,34.84
2023-04-15T11:56:28.414Z,34.71
2023-04-15T11:57:33.418Z,34.67
2023-04-15T11:58:38.359Z,35.05
2023-04-15T11:59:45.994Z,34.91
2023-04-15T12:00:51.972Z,35.00
2023-04-15T12:01:55.740Z,34.52
2023-04-15T12:03:14.099Z,34.85
2023-04-15T12:04:20.817Z,34.99
2023-04-15T12:05:28.543Z,35.65
2023-04-15T12:06:34.071Z,35.31
2023-04-15T12:08:01.415Z,35.37
2023-04-15T12:09:14.411Z,35.07
2023-04-15T12:10:19.172Z,35.76
2023-04-15T12:11:28.644Z,35.48
2023-04-15T12:12:32.314Z,35.13
2023-04-15T12:13:36.042Z,35.80
2023-04-15T12:14:41.574Z,35.89
2023-04-15T12:15:45.297Z,35.72
2023-04-15T12:16:51.656Z,35.32
2023-04-15T12:17:56.208Z,35.36
2023-04-15T12:19:01.444Z,35.39
2023-04-15T12:20:06.883Z,35.65
2023-04-15T12:21:15.336Z,36.11
2023-04-15T12:22:19.067Z,36.43
2023-04-15T12:23:22.732Z,36.16
2023-04-15T12:24:26.759Z,36.72
2023-04-15T12:25:36.269Z,37.38
2023-04-15T12:26:45.250Z,36.54
2023-04-15T12:27:53.287Z,37.68
2023-04-15T12:28:57.162Z,37.72
2023-04-15T12:30:06.269Z,37.96
2023-04-15T12:31:10.438Z,39.25
2023-04-15T12:32:14.925Z,39.26
2023-04-15T12:33:18.562Z,39.59
2023-04-15T12:34:29.542Z,39.52
2023-04-15T12:35:33.258Z,40.44
2023-04-15T12:36:38.622Z,39.39
2023-04-15T12:37:42.559Z,39.19
2023-04-15T12:38:46.239Z,39.34
2023-04-15T12:39:50.999Z,40.54
2023-04-15T12:40:55.020Z,41.09
2023-04-15T12:41:59.039Z,40.01
2023-04-15T12:43:02.875Z,41.00
2023-04-15T12:44:06.756Z,40.93
2023-04-15T12:45:10.716Z,41.27
2023-04-15T12:46:14.814Z,41.72
2023-04-15T12:47:18.536Z,40.84
2023-04-15T12:48:22.316Z,40.71
2023-04-15T12:49:26.565Z,41.02
2023-04-15T12:50:30.295Z,41.50
2023-04-15T12:51:35.935Z,40.56
2023-04-15T12:52:41.292Z,41.23
2023-04-15T12:53:48.140Z,41.17
2023-04-15T12:54:51.784Z,40.47
2023-04-15T12:55:55.577Z,40.22
2023-04-15T12:56:59.843Z,40.92
2023-04-15T12:58:03.579Z,41.43
2023-04-15T12:59:07.210Z,42.03
2023-04-15T13:00:12.058Z,42.09
2023-04-15T13:01:15.910Z,41.20
2023-04-15T13:02:19.809Z,41.78
2023-04-15T13:03:23.907Z,41.27
2023-04-15T13:04:27.747Z,40.90
2023-04-15T13:05:31.436Z,41.63
2023-04-15T13:06:35.783Z,42.07
2023-04-15T13:07:41.179Z,41.97
2023-04-15T13:08:57.334Z,41.51
2023-04-15T13:10:01.568Z,41.32
2023-04-15T13:11:05.490Z,41.82
2023-04-15T13:12:09.278Z,41.88
2023-04-15T13:13:13.008Z,42.05
2023-04-15T13:14:16.639Z,42.70
2023-04-15T13:15:20.499Z,41.48
2023-04-15T13:16:24.434Z,42.12
2023-04-15T13:17:28.165Z,43.30
2023-04-15T13:18:31.927Z,42.58
2023-04-15T13:19:35.723Z,43.26
2023-04-15T13:20:39.399Z,43.79
2023-04-15T13:21:43.172Z,42.79
2023-04-15T13:22:48.583Z,42.17
2023-04-15T13:23:55.230Z,42.62
2023-04-15T13:24:58.920Z,43.19
2023-04-15T13:26:02.600Z,43.06
2023-04-15T13:27:06.243Z,42.92
2023-04-15T13:28:10.605Z,43.84
2023-04-15T13:29:14.344Z,42.49
2023-04-15T13:30:18.079Z,43.15
2023-04-15T13:31:21.819Z,43.44
2023-04-15T13:32:25.537Z,43.28
2023-04-15T13:33:29.390Z,43.48
2023-04-15T13:34:35.978Z,42.63
2023-04-15T13:35:40.461Z,43.81
2023-04-15T13:36:44.167Z,43.21
2023-04-15T13:37:49.464Z,44.12
2023-04-15T13:38:53.149Z,44.23
2023-04-15T13:39:57.265Z,43.72
2023-04-15T13:41:01.008Z,43.05
2023-04-15T13:42:04.816Z,43.22
2023-04-15T13:43:08.473Z,43.24
2023-04-15T13:44:23.610Z,43.74
2023-04-15T13:45:27.558Z,44.50
2023-04-15T13:46:31.203Z,44.09
2023-04-15T13:47:34.968Z,43.68
2023-04-15T13:48:38.649Z,44.25
2023-04-15T13:49:42.380Z,43.68
2023-04-15T13:50:46.078Z,43.10
2023-04-15T13:51:49.725Z,43.37
2023-04-15T13:52:55.000Z,43.00
2023-04-15T13:54:03.697Z,43.37
2023-04-15T13:55:19.952Z,42.75
2023-04-15T13:56:25.347Z,42.71